createdAt,value
2018-06-09T00:01:40.121Z,57.00
2018-06-09T00:04:09.089Z,54.27
2018-06-09T00:06:38.057Z,53.93
2018-06-09T00:09:07.780Z,53.10
2018-06-09T00:11:36.770Z,54.60
2018-06-09T00:14:05.729Z,55.20
2018-06-09T00:16:34.472Z,55.43
2018-06-09T00:19:03.461Z,56.37
2018-06-09T00:21:32.475Z,55.30
2018-06-09T00:24:01.482Z,56.17
2018-06-09T00:26:30.393Z,53.90
2018-06-09T00:28:59.445Z,54.53
2018-06-09T00:31:31.714Z,55.23
2018-06-09T00:34:00.689Z,53.43
2018-06-09T00:36:29.698Z,56.60
2018-06-09T00:38:58.655Z,56.53
2018-06-09T00:41:27.616Z,55.20
2018-06-09T00:43:56.598Z,56.80
2018-06-09T00:46:25.591Z,55.67
2018-06-09T00:48:54.552Z,57.70
2018-06-09T00:51:23.508Z,55.00
2018-06-09T00:53:52.558Z,58.00
2018-06-09T00:56:26.931Z,56.73
2018-06-09T00:58:55.786Z,56.40
2018-06-09T01:01:24.764Z,58.77
2018-06-09T01:03:53.512Z,58.57
2018-06-09T01:06:22.323Z,56.90
2018-06-09T01:08:51.219Z,61.00
2018-06-09T01:11:20.117Z,61.10
2018-06-09T01:13:49.110Z,61.53
2018-06-09T01:16:17.848Z,60.07
2018-06-09T01:18:46.686Z,59.37
2018-06-09T01:21:15.668Z,61.40
2018-06-09T01:23:44.636Z,58.30
2018-06-09T01:26:13.553Z,57.57
2018-06-09T01:28:42.585Z,58.87
2018-06-09T01:31:11.524Z,56.17
2018-06-09T01:33:40.736Z,59.07
2018-06-09T01:36:09.699Z,57.80
2018-06-09T01:38:38.701Z,56.70
2018-06-09T01:41:07.701Z,55.10
2018-06-09T01:43:36.634Z,54.53
2018-06-09T01:46:05.674Z,54.67
2018-06-09T01:48:34.620Z,53.37
2018-06-09T01:51:03.564Z,51.90
2018-06-09T01:53:32.478Z,53.57
2018-06-09T01:56:01.421Z,55.20
2018-06-09T01:58:30.589Z,52.90
2018-06-09T02:00:59.526Z,50.40
2018-06-09T02:03:28.457Z,53.07
2018-06-09T02:05:57.485Z,49.70
2018-06-09T02:08:26.489Z,51.70
2018-06-09T02:10:55.507Z,50.77
2018-06-09T02:13:24.468Z,49.27
2018-06-09T02:15:53.444Z,51.53
2018-06-09T02:18:22.393Z,49.40
2018-06-09T02:20:51.349Z,50.07
2018-06-09T02:23:20.366Z,51.00
2018-06-09T02:25:49.296Z,50.73
2018-06-09T02:28:18.321Z,49.40
2018-06-09T02:30:47.314Z,51.67
2018-06-09T02:33:16.265Z,50.10
2018-06-09T02:35:45.272Z,50.10
2018-06-09T02:38:14.201Z,48.80
2018-06-09T02:40:43.138Z,49.37
2018-06-09T02:43:12.109Z,46.90
2018-06-09T02:45:41.042Z,46.13
2018-06-09T02:48:10.057Z,45.53
2018-06-09T02:50:39.040Z,46.83
2018-06-09T02:53:08.201Z,45.97
2018-06-09T02:55:37.143Z,44.80
2018-06-09T02:58:05.921Z,42.70
2018-06-09T03:00:34.761Z,46.10
2018-06-09T03:03:03.710Z,42.07
2018-06-09T03:05:32.741Z,42.50
2018-06-09T03:08:01.774Z,41.83
2018-06-09T03:10:30.726Z,42.40
2018-06-09T03:12:59.710Z,41.20
2018-06-09T03:15:28.648Z,41.37
2018-06-09T03:17:57.607Z,41.93
2018-06-09T03:20:26.977Z,40.63
2018-06-09T03:22:55.908Z,41.60
2018-06-09T03:25:24.953Z,41.10
2018-06-09T03:27:53.996Z,41.17
2018-06-09T03:30:22.949Z,40.40
2018-06-09T03:32:51.904Z,42.43
2018-06-09T03:35:20.639Z,40.50
2018-06-09T03:37:49.433Z,39.47
2018-06-09T03:40:18.609Z,40.83
2018-06-09T03:42:47.534Z,39.30
2018-06-09T03:45:16.552Z,38.33
2018-06-09T03:47:46.036Z,38.67
2018-06-09T03:50:14.980Z,41.10
2018-06-09T03:52:43.914Z,39.27
2018-06-09T03:55:12.865Z,40.80
2018-06-09T03:57:41.866Z,39.40
2018-06-09T04:00:10.805Z,36.70
2018-06-09T04:02:39.757Z,38.37
2018-06-09T04:05:08.695Z,39.03
2018-06-09T04:07:37.715Z,35.60
2018-06-09T04:10:06.685Z,36.63
2018-06-09T04:12:35.637Z,34.20
2018-06-09T04:15:04.595Z,35.90
2018-06-09T04:17:33.532Z,33.97
2018-06-09T04:20:02.489Z,34.33
2018-06-09T04:22:31.439Z,34.40
2018-06-09T04:25:00.441Z,33.90
2018-06-09T04:27:29.108Z,33.90
2018-06-09T04:29:57.937Z,33.63
2018-06-09T04:32:26.867Z,33.83
2018-06-09T04:34:55.830Z,33.77
2018-06-09T04:37:24.787Z,32.33
2018-06-09T04:39:53.778Z,31.80
2018-06-09T04:42:22.839Z,32.43
2018-06-09T04:44:51.824Z,32.80
2018-06-09T04:47:20.755Z,32.87
2018-06-09T04:49:49.725Z,34.47
2018-06-09T04:52:18.699Z,33.57
2018-06-09T04:54:47.615Z,31.70
2018-06-09T04:57:16.665Z,32.43
2018-06-09T04:59:45.603Z,32.37
2018-06-09T05:02:14.557Z,31.50
2018-06-09T05:04:43.513Z,30.53
2018-06-09T05:07:12.482Z,30.93
2018-06-09T05:09:41.501Z,28.90
2018-06-09T05:12:10.584Z,29.20
2018-06-09T05:14:39.577Z,28.80
2018-06-09T05:17:08.489Z,29.00
2018-06-09T05:19:37.428Z,29.73
2018-06-09T05:22:06.415Z,29.30
2018-06-09T05:24:35.391Z,30.07
2018-06-09T05:27:04.322Z,27.60
2018-06-09T05:29:33.286Z,29.57
2018-06-09T05:32:02.229Z,28.97
2018-06-09T05:34:31.482Z,28.17
2018-06-09T05:37:00.444Z,27.53
2018-06-09T05:39:29.448Z,27.77
2018-06-09T05:41:58.369Z,27.13
2018-06-09T05:44:27.285Z,27.77
2018-06-09T05:46:56.229Z,27.90
2018-06-09T05:49:25.008Z,27.90
2018-06-09T05:51:53.852Z,28.40
2018-06-09T05:54:22.916Z,28.57
2018-06-09T05:56:51.841Z,27.70
2018-06-09T05:59:20.911Z,28.80
2018-06-09T06:01:50.084Z,27.70
2018-06-09T06:04:19.014Z,29.40
2018-06-09T06:06:47.984Z,29.50
2018-06-09T06:09:17.065Z,29.30
2018-06-09T06:11:46.097Z,27.30
2018-06-09T06:14:15.106Z,28.80
2018-06-09T06:16:44.203Z,26.60
2018-06-09T06:19:13.209Z,27.77
2018-06-09T06:21:42.321Z,27.70
2018-06-09T06:24:11.086Z,25.97
2018-06-09T06:26:39.945Z,27.50
2018-06-09T06:29:08.965Z,25.10
2018-06-09T06:31:38.092Z,25.00
2018-06-09T06:34:07.048Z,24.60
2018-06-09T06:36:35.830Z,24.40
2018-06-09T06:39:08.011Z,24.50
2018-06-09T06:41:36.804Z,25.30
2018-06-09T06:44:05.448Z,25.27
2018-06-09T06:46:34.345Z,24.97
2018-06-09T06:49:03.337Z,26.23
2018-06-09T06:51:32.435Z,25.73
2018-06-09T06:54:01.607Z,26.50
2018-06-09T06:56:30.852Z,25.60
2018-06-09T06:58:59.772Z,24.63
2018-06-09T07:01:28.709Z,26.20
2018-06-09T07:03:57.657Z,25.13
2018-06-09T07:06:26.589Z,23.97
2018-06-09T07:08:55.586Z,24.40
2018-06-09T07:11:24.526Z,25.47
2018-06-09T07:13:53.477Z,25.63
2018-06-09T07:16:22.497Z,24.70
2018-06-09T07:18:51.482Z,25.50
2018-06-09T07:21:20.490Z,23.70
2018-06-09T07:23:49.432Z,25.80
2018-06-09T07:26:18.454Z,25.40
2018-06-09T07:28:47.402Z,24.43
2018-06-09T07:31:17.434Z,25.67
2018-06-09T07:33:46.381Z,25.77
2018-06-09T07:36:15.365Z,25.60
2018-06-09T07:38:44.318Z,26.87
2018-06-09T07:41:13.293Z,25.70
2018-06-09T07:43:42.238Z,25.70
2018-06-09T07:46:11.203Z,26.73
2018-06-09T07:48:40.230Z,25.47
2018-06-09T07:51:09.317Z,26.20
2018-06-09T07:53:37.975Z,27.50
2018-06-09T07:56:06.874Z,28.77
2018-06-09T07:58:35.588Z,27.90
2018-06-09T08:01:04.479Z,26.60
2018-06-09T08:03:33.415Z,28.23
2018-06-09T08:06:02.151Z,24.77
2018-06-09T08:08:30.996Z,25.13
2018-06-09T08:10:59.922Z,24.73
2018-06-09T08:13:28.914Z,25.10
2018-06-09T08:15:58.009Z,24.77
2018-06-09T08:18:26.959Z,26.10
2018-06-09T08:20:55.889Z,24.17
2018-06-09T08:23:24.902Z,26.20
2018-06-09T08:25:53.808Z,24.83
2018-06-09T08:28:22.749Z,24.50
2018-06-09T08:30:51.685Z,24.27
2018-06-09T08:33:20.658Z,24.37
2018-06-09T08:35:49.594Z,22.63
2018-06-09T08:38:18.525Z,24.80
2018-06-09T08:40:48.610Z,25.37
2018-06-09T08:43:19.637Z,24.57
2018-06-09T08:45:50.702Z,24.73
2018-06-09T08:48:21.549Z,25.00
2018-06-09T08:50:54.757Z,25.10
2018-06-09T08:53:28.097Z,24.30
2018-06-09T08:56:00.291Z,24.67
2018-06-09T08:58:32.458Z,24.33
2018-06-09T09:01:03.293Z,24.73
2018-06-09T09:03:34.945Z,26.07
2018-06-09T09:06:07.307Z,23.80
2018-06-09T09:08:38.559Z,26.07
2018-06-09T09:11:10.262Z,24.83
2018-06-09T09:13:41.519Z,25.43
2018-06-09T09:16:12.277Z,24.93
2018-06-09T09:18:43.953Z,25.33
2018-06-09T09:21:15.330Z,25.60
2018-06-09T09:23:47.465Z,23.77
2018-06-09T09:26:18.605Z,23.30
2018-06-09T09:28:52.409Z,24.17
2018-06-09T09:31:24.273Z,23.57
2018-06-09T09:33:55.820Z,24.40
2018-06-09T09:36:27.584Z,26.10
2018-06-09T09:39:01.075Z,24.20
2018-06-09T09:41:33.621Z,22.73
2018-06-09T09:44:05.714Z,23.70
2018-06-09T09:46:37.165Z,22.87
2018-06-09T09:49:06.313Z,23.10
2018-06-09T09:51:35.307Z,23.70
2018-06-09T09:54:03.985Z,22.93
2018-06-09T09:56:33.104Z,22.30
2018-06-09T09:59:02.233Z,21.50
2018-06-09T10:01:31.158Z,22.67
2018-06-09T10:04:00.118Z,22.50
2018-06-09T10:06:29.144Z,25.23
2018-06-09T10:08:58.737Z,24.00
2018-06-09T10:11:27.766Z,24.47
2018-06-09T10:13:56.677Z,22.53
2018-06-09T10:16:25.684Z,24.57
2018-06-09T10:18:54.718Z,23.10
2018-06-09T10:21:23.663Z,21.67
2018-06-09T10:23:52.630Z,24.10
2018-06-09T10:26:21.602Z,24.00
2018-06-09T10:28:50.564Z,24.37
2018-06-09T10:31:19.572Z,23.17
2018-06-09T10:33:48.762Z,23.57
2018-06-09T10:36:17.732Z,23.60
2018-06-09T10:38:46.693Z,23.70
2018-06-09T10:41:15.657Z,24.13
2018-06-09T10:43:44.606Z,23.80
2018-06-09T10:46:13.550Z,25.00
2018-06-09T10:48:42.532Z,25.60
2018-06-09T10:51:13.198Z,24.80
2018-06-09T10:53:42.148Z,25.80
2018-06-09T10:56:11.065Z,24.67
2018-06-09T10:58:40.022Z,24.77
2018-06-09T11:01:08.968Z,25.03
2018-06-09T11:03:39.081Z,24.23
2018-06-09T11:06:08.067Z,24.53
2018-06-09T11:08:36.977Z,23.33
2018-06-09T11:11:05.919Z,23.20
2018-06-09T11:13:34.881Z,24.50
2018-06-09T11:16:03.867Z,26.90
2018-06-09T11:18:32.814Z,25.07
2018-06-09T11:21:01.746Z,25.50
2018-06-09T11:23:30.758Z,23.07
2018-06-09T11:25:59.721Z,22.80
2018-06-09T11:28:28.678Z,22.40
2018-06-09T11:30:57.628Z,23.37
2018-06-09T11:33:27.222Z,24.90
2018-06-09T11:35:56.133Z,24.47
2018-06-09T11:38:25.069Z,23.60
2018-06-09T11:40:53.990Z,22.53
2018-06-09T11:43:22.948Z,23.90
2018-06-09T11:45:51.861Z,25.00
2018-06-09T11:48:20.807Z,22.40
2018-06-09T11:50:49.705Z,21.03
2018-06-09T11:53:18.792Z,22.20
2018-06-09T11:55:47.757Z,22.00
2018-06-09T11:58:16.709Z,21.83
2018-06-09T12:00:45.669Z,23.30
2018-06-09T12:03:14.682Z,22.67
2018-06-09T12:05:43.755Z,23.93
2018-06-09T12:08:12.669Z,23.40
2018-06-09T12:10:41.591Z,21.07
2018-06-09T12:13:10.909Z,22.97
2018-06-09T12:15:39.874Z,23.77
2018-06-09T12:18:08.805Z,22.70
2018-06-09T12:20:37.826Z,25.57
2018-06-09T12:23:06.994Z,23.90
2018-06-09T12:25:36.199Z,22.67
2018-06-09T12:28:05.233Z,22.57
2018-06-09T12:30:34.238Z,23.47
2018-06-09T12:33:03.608Z,21.97
2018-06-09T12:35:33.127Z,23.30
2018-06-09T12:38:02.477Z,23.33
2018-06-09T12:40:31.518Z,24.20
2018-06-09T12:43:00.450Z,26.63
2018-06-09T12:45:29.378Z,21.20
2018-06-09T12:47:58.328Z,22.70
2018-06-09T12:50:26.994Z,22.37
2018-06-09T12:52:55.854Z,23.90
2018-06-09T12:55:25.117Z,23.27
2018-06-09T12:57:54.243Z,24.90
2018-06-09T13:00:23.196Z,24.40
2018-06-09T13:02:52.323Z,26.13
2018-06-09T13:05:21.420Z,24.97
2018-06-09T13:07:50.464Z,24.20
2018-06-09T13:10:19.485Z,22.40
2018-06-09T13:12:48.554Z,22.90
2018-06-09T13:15:17.596Z,24.07
2018-06-09T13:17:46.599Z,23.67
2018-06-09T13:20:15.583Z,24.10
2018-06-09T13:22:44.556Z,23.57
2018-06-09T13:25:13.486Z,23.43
2018-06-09T13:27:42.773Z,22.87
2018-06-09T13:30:11.701Z,23.27
2018-06-09T13:32:40.662Z,20.87
2018-06-09T13:35:09.609Z,23.90
2018-06-09T13:37:38.769Z,22.30
2018-06-09T13:40:07.734Z,23.40
2018-06-09T13:42:36.671Z,23.80
2018-06-09T13:45:05.618Z,24.17
2018-06-09T13:47:34.341Z,22.70
2018-06-09T13:50:03.166Z,24.40
2018-06-09T13:52:32.288Z,21.90
2018-06-09T13:55:00.977Z,20.97
2018-06-09T13:57:29.793Z,21.50
2018-06-09T13:59:58.751Z,19.47
2018-06-09T14:02:27.762Z,22.17
2018-06-09T14:04:56.702Z,19.53
2018-06-09T14:07:25.617Z,21.67
2018-06-09T14:09:54.581Z,20.60
2018-06-09T14:12:23.517Z,20.73
2018-06-09T14:14:52.723Z,19.60
2018-06-09T14:17:21.700Z,23.73
2018-06-09T14:19:50.635Z,21.23
2018-06-09T14:22:19.573Z,20.47
2018-06-09T14:24:48.600Z,22.17
2018-06-09T14:27:17.530Z,20.33
2018-06-09T14:29:47.322Z,18.70
2018-06-09T14:32:16.281Z,19.77
2018-06-09T14:34:45.198Z,21.67
2018-06-09T14:37:14.146Z,19.17
2018-06-09T14:39:43.098Z,18.60
2018-06-09T14:42:12.126Z,19.00
2018-06-09T14:44:41.079Z,17.40
2018-06-09T14:47:10.092Z,22.40
2018-06-09T14:49:39.019Z,18.90
2018-06-09T14:52:07.970Z,19.97
2018-06-09T14:54:36.916Z,18.97
2018-06-09T14:57:05.902Z,20.20
2018-06-09T14:59:35.062Z,21.17
2018-06-09T15:02:04.070Z,19.97
2018-06-09T15:04:32.801Z,20.20
2018-06-09T15:07:01.640Z,20.70
2018-06-09T15:09:30.545Z,19.27
2018-06-09T15:11:59.509Z,19.93
2018-06-09T15:14:28.484Z,20.10
2018-06-09T15:16:57.413Z,19.23
2018-06-09T15:19:26.423Z,19.50
2018-06-09T15:21:55.408Z,20.23
2018-06-09T15:24:24.333Z,20.63
2018-06-09T15:26:53.302Z,19.87
2018-06-09T15:29:22.285Z,20.00
2018-06-09T15:31:51.218Z,20.00
2018-06-09T15:34:20.236Z,19.73
2018-06-09T15:36:49.318Z,20.97
2018-06-09T15:39:18.250Z,20.83
2018-06-09T15:41:47.292Z,21.93
2018-06-09T15:44:16.607Z,20.87
2018-06-09T15:46:45.553Z,19.63
2018-06-09T15:49:14.561Z,20.53
2018-06-09T15:51:43.657Z,20.50
2018-06-09T15:54:12.597Z,20.90
2018-06-09T15:56:42.578Z,20.67
2018-06-09T15:59:11.509Z,20.93
2018-06-09T16:01:40.637Z,20.80
2018-06-09T16:04:09.572Z,20.30
2018-06-09T16:06:38.516Z,22.50
2018-06-09T16:09:08.050Z,20.80
2018-06-09T16:11:36.925Z,20.63
2018-06-09T16:14:05.666Z,21.00
2018-06-09T16:16:34.472Z,20.23
2018-06-09T16:19:03.453Z,21.37
2018-06-09T16:21:32.555Z,18.10
2018-06-09T16:24:01.481Z,19.50
2018-06-09T16:26:30.418Z,19.20
2018-06-09T16:28:59.329Z,19.27
2018-06-09T16:31:28.277Z,18.37
2018-06-09T16:33:57.210Z,17.60
2018-06-09T16:36:26.453Z,17.53
2018-06-09T16:38:55.439Z,16.87
2018-06-09T16:41:24.576Z,18.03
2018-06-09T16:43:53.532Z,16.73
2018-06-09T16:46:22.488Z,16.33
2018-06-09T16:48:51.458Z,17.87
2018-06-09T16:51:20.980Z,17.47
2018-06-09T16:53:49.963Z,18.37
2018-06-09T16:56:18.920Z,17.00
2018-06-09T16:58:47.941Z,16.70
2018-06-09T17:01:16.896Z,16.30
2018-06-09T17:03:45.826Z,17.60
2018-06-09T17:06:14.764Z,17.00
2018-06-09T17:08:43.705Z,17.50
2018-06-09T17:11:12.630Z,18.50
2018-06-09T17:13:41.593Z,16.63
2018-06-09T17:16:10.620Z,15.80
2018-06-09T17:18:39.508Z,17.77
2018-06-09T17:21:08.577Z,16.20
2018-06-09T17:23:37.521Z,16.87
2018-06-09T17:26:06.466Z,19.27
2018-06-09T17:28:35.420Z,19.23
2018-06-09T17:31:04.394Z,17.00
2018-06-09T17:33:33.357Z,16.73
2018-06-09T17:36:02.321Z,16.10
2018-06-09T17:38:31.300Z,16.07
2018-06-09T17:41:00.201Z,27.77
2018-06-09T17:43:29.155Z,17.83
2018-06-09T17:45:58.105Z,21.03
2018-06-09T17:48:27.021Z,16.80
2018-06-09T17:50:55.970Z,19.00
2018-06-09T17:53:24.929Z,21.77
2018-06-09T17:55:53.943Z,19.13
2018-06-09T17:58:23.001Z,21.73
2018-06-09T18:00:52.006Z,18.83
2018-06-09T18:03:20.850Z,27.83
2018-06-09T18:05:50.094Z,20.93
2018-06-09T18:08:19.029Z,17.90
2018-06-09T18:10:48.212Z,33.10
2018-06-09T18:13:16.977Z,18.67
2018-06-09T18:15:45.805Z,18.80
2018-06-09T18:18:14.799Z,15.37
2018-06-09T18:20:43.733Z,17.97
2018-06-09T18:23:12.679Z,16.70
2018-06-09T18:25:41.617Z,15.63
2018-06-09T18:28:10.529Z,15.40
2018-06-09T18:30:39.502Z,15.83
2018-06-09T18:33:08.450Z,15.27
2018-06-09T18:35:37.414Z,14.97
2018-06-09T18:38:06.390Z,17.63
2018-06-09T18:40:35.341Z,16.17
2018-06-09T18:43:04.285Z,15.13
2018-06-09T18:45:33.205Z,14.40
2018-06-09T18:48:02.178Z,15.37
2018-06-09T18:50:31.153Z,14.70
2018-06-09T18:53:00.086Z,14.73
2018-06-09T18:55:29.039Z,13.87
2018-06-09T18:57:57.852Z,13.90
2018-06-09T19:00:26.663Z,13.93
2018-06-09T19:02:55.610Z,14.87
2018-06-09T19:05:24.589Z,12.83
2018-06-09T19:07:53.543Z,13.77
2018-06-09T19:10:22.642Z,14.03
2018-06-09T19:12:51.592Z,15.57
2018-06-09T19:15:20.584Z,13.60
2018-06-09T19:17:49.648Z,15.13
2018-06-09T19:20:18.610Z,14.30
2018-06-09T19:22:47.568Z,14.10
2018-06-09T19:25:16.539Z,14.90
2018-06-09T19:27:45.465Z,15.70
2018-06-09T19:30:14.605Z,13.13
2018-06-09T19:32:43.533Z,14.33
2018-06-09T19:35:12.581Z,14.20
2018-06-09T19:37:41.517Z,13.87
2018-06-09T19:40:10.458Z,14.40
2018-06-09T19:42:39.401Z,15.37
2018-06-09T19:45:08.362Z,14.97
2018-06-09T19:47:37.382Z,13.50
2018-06-09T19:50:06.746Z,14.97
2018-06-09T19:52:35.678Z,14.50
2018-06-09T19:55:04.651Z,15.37
2018-06-09T19:57:33.613Z,14.80
2018-06-09T20:00:02.579Z,15.60
2018-06-09T20:02:31.511Z,14.10
2018-06-09T20:05:00.461Z,15.87
2018-06-09T20:07:29.422Z,15.40
2018-06-09T20:09:58.371Z,15.60
2018-06-09T20:12:27.306Z,16.20
2018-06-09T20:14:56.381Z,17.00
2018-06-09T20:17:25.362Z,17.53
2018-06-09T20:19:54.291Z,16.67
2018-06-09T20:22:23.273Z,16.33
2018-06-09T20:24:52.250Z,17.07
2018-06-09T20:27:21.193Z,17.50
2018-06-09T20:29:49.894Z,17.90
2018-06-09T20:32:18.729Z,18.80
2018-06-09T20:34:47.680Z,18.40
2018-06-09T20:37:16.618Z,18.30
2018-06-09T20:39:45.392Z,17.53
2018-06-09T20:42:14.190Z,17.80
2018-06-09T20:44:43.157Z,19.90
2018-06-09T20:47:12.093Z,19.23
2018-06-09T20:49:41.044Z,19.60
2018-06-09T20:52:10.006Z,19.40
2018-06-09T20:54:38.971Z,19.83
2018-06-09T20:57:09.317Z,19.53
2018-06-09T20:59:38.276Z,20.53
2018-06-09T21:02:07.218Z,19.00
2018-06-09T21:04:36.165Z,19.30
2018-06-09T21:07:05.093Z,19.43
2018-06-09T21:09:33.901Z,18.80
2018-06-09T21:12:03.256Z,18.47
2018-06-09T21:14:32.189Z,18.90
2018-06-09T21:17:01.118Z,18.80
2018-06-09T21:19:30.101Z,18.60
2018-06-09T21:21:59.584Z,19.00
2018-06-09T21:24:28.466Z,19.03
2018-06-09T21:27:02.677Z,18.67
2018-06-09T21:29:34.138Z,18.20
2018-06-09T21:32:10.101Z,17.97
2018-06-09T21:34:55.930Z,18.93
2018-06-09T21:37:30.171Z,18.40
2018-06-09T21:40:04.798Z,17.60
2018-06-09T21:42:35.158Z,17.57
2018-06-09T21:45:08.121Z,17.80
2018-06-09T21:47:37.067Z,17.07
2018-06-09T21:50:06.051Z,16.40
2018-06-09T21:52:35.008Z,15.63
2018-06-09T21:55:03.966Z,16.60
2018-06-09T21:57:32.928Z,15.87
2018-06-09T22:00:01.930Z,17.03
2018-06-09T22:02:30.926Z,15.70
2018-06-09T22:04:59.869Z,16.47
2018-06-09T22:07:28.837Z,15.90
2018-06-09T22:09:57.749Z,15.90
2018-06-09T22:12:26.709Z,15.13
2018-06-09T22:14:55.634Z,16.27
2018-06-09T22:17:24.563Z,15.33
2018-06-09T22:19:53.504Z,14.23
2018-06-09T22:22:22.437Z,15.17
2018-06-09T22:24:51.343Z,15.77
2018-06-09T22:27:20.298Z,13.60
2018-06-09T22:29:49.241Z,15.53
2018-06-09T22:32:18.190Z,14.50
2018-06-09T22:34:47.124Z,15.00
2018-06-09T22:37:16.057Z,14.10
2018-06-09T22:39:45.874Z,14.90
2018-06-09T22:42:15.809Z,15.07
2018-06-09T22:44:46.154Z,13.60
2018-06-09T22:47:15.094Z,14.43
2018-06-09T22:49:44.027Z,14.60
2018-06-09T22:52:12.953Z,13.87
2018-06-09T22:54:41.910Z,14.00
2018-06-09T22:57:10.765Z,13.60
2018-06-09T22:59:39.716Z,14.40
2018-06-09T23:02:08.731Z,12.37
2018-06-09T23:04:37.878Z,14.00
2018-06-09T23:07:06.826Z,13.50
2018-06-09T23:09:35.782Z,13.33
2018-06-09T23:12:05.235Z,14.20
2018-06-09T23:14:34.156Z,14.20
2018-06-09T23:17:03.314Z,13.37
2018-06-09T23:19:32.306Z,14.43
2018-06-09T23:22:01.253Z,14.07
2018-06-09T23:24:30.178Z,13.97
2018-06-09T23:27:00.163Z,13.77
2018-06-09T23:29:29.110Z,14.00
2018-06-09T23:31:58.147Z,15.10
2018-06-09T23:34:27.081Z,14.73
2018-06-09T23:36:56.047Z,14.40
2018-06-09T23:39:24.743Z,14.43
2018-06-09T23:41:53.613Z,14.33
2018-06-09T23:44:22.540Z,15.17
2018-06-09T23:46:51.478Z,15.13
2018-06-09T23:49:20.434Z,16.00
2018-06-09T23:51:49.676Z,15.10
2018-06-09T23:54:18.626Z,15.73
2018-06-09T23:56:47.901Z,14.77
2018-06-09T23:59:16.828Z,15.00
